Caldwell, NJ

8:23 AM EDT on July 01, 2015 (GMT -0400)
W2IRT | | Change Station
CLOSE
Current Station
Personal Weather Station
Location: West Caldwell, NJ
Elevation: 261 ft
Nearby Weather Stations

Elev 261 ft 40.86 °N, 74.28 °W | Updated 11 seconds ago

Scattered Clouds
Scattered Clouds
68.0 °F
Feels Like 68.0 °F
N
1.0
Wind Variable Wind from SW
Gusts 3.0 mph

Today
High -- | Low -- °F
--% Chance of Precip.
Yesterday
High -- | Low -- °F
Precip. -- in
5:29 AM 8:32 PM
Full, 100% visible
Pressure 29.79 in
Visibility 7.0 miles
Clouds Few 900 ft
Scattered Clouds 2100 ft
Dew Point 66 °F
Humidity 90%
Rainfall 0.46 in
Snow Depth Not available.
UV 2 out of 12
Pollen .50 out of 12
Air Quality Not available.
Flu Activity Not available.
SPECI KCDW 011213Z VRB03KT 7SM FEW009 SCT021 21/18 A2979 RMK AO2 T02060183

More Conditions Fewer Conditions

Pressure 29.79 in
Visibility 7.0 miles
Clouds Few 900 ft
Scattered Clouds 2100 ft
Dew Point 66 °F
Humidity 90%
Rainfall 0.46 in
Snow Depth Not available.
UV 2 out of 12
Pollen .50 out of 12
Air Quality Not available.
Flu Activity Not available.
SPECI KCDW 011213Z VRB03KT 7SM FEW009 SCT021 21/18 A2979 RMK AO2 T02060183

More Conditions Fewer Conditions

10-Day Weather Forecast

×

Almanac

Astronomy

Jul. 01, 2015 Rise Set
Actual Time
Civil Twilight
Nautical Twilight
Astronomical Twilight
Moon
Length of Visible Light
Length of Day
Tomorrow will be .
, % of the Moon is Illuminated

Today's Extremes

State Highs State Lows

Community

WunderPhotos

Upload Photos

1,834,183 photos uploaded!

WunderBlogs® & News

Nearby

Air Quality

  Air Quality AQ Index Pollutant
Not available.

Snow Depth

Station Depth Elevation

Earthquake Activity

City Distance Mag. Time & Date
Minimum magnitude displayed is 2.5.

Coastal Water Temperatures

Place Temperature

Stations

Nearby Weather Stations

Station Location Temp. Windchill Dew Point Humidity Wind Precip. Elev Updated Type